Time;durP1;ratioP1;P1;durP2;ratioP2;P2;SDS_P1;SDS_P2;PMS_P1;PMS_P2;Temp;Humidity;BMP_temperature;BMP_pressure;BME280_temperature;BME280_humidity;BME280_pressure;Samples;Min_cycle;Max_cycle;Signal;HPM_P1;HPM_P2
2022/04/16 00:00:52;;;;;;;22.67;16.33;;;8.50;99.90;;;;;;5052517;28;20044;-68
2022/04/16 00:03:19;;;;;;;22.42;17.00;;;8.50;99.90;;;;;;5051573;28;20052;-68
2022/04/16 00:05:44;;;;;;;26.92;17.35;;;8.40;99.90;;;;;;5052818;28;20037;-68
2022/04/16 00:08:10;;;;;;;25.85;17.63;;;8.40;99.90;;;;;;5052481;28;20055;-68
2022/04/16 00:10:37;;;;;;;27.73;16.58;;;8.40;99.90;;;;;;5050739;28;20041;-68
2022/04/16 00:13:03;;;;;;;28.70;17.95;;;8.40;99.90;;;;;;5052387;28;20045;-68
2022/04/16 00:15:30;;;;;;;25.13;17.70;;;8.40;99.90;;;;;;5052666;28;20041;-68
2022/04/16 00:17:55;;;;;;;25.67;17.08;;;8.30;99.90;;;;;;5052332;28;20530;-68
2022/04/16 00:20:24;;;;;;;27.88;18.33;;;8.30;99.90;;;;;;5051972;28;20080;-68
2022/04/16 00:22:51;;;;;;;28.65;17.75;;;8.30;99.90;;;;;;5051666;28;20037;-68
2022/04/16 00:25:16;;;;;;;26.23;18.02;;;8.30;99.90;;;;;;5052250;28;20391;-68
2022/04/16 00:27:42;;;;;;;24.50;17.00;;;8.30;99.90;;;;;;5052420;28;20040;-68
2022/04/16 00:30:08;;;;;;;27.73;17.38;;;8.30;99.90;;;;;;5050629;28;20095;-68
2022/04/16 00:32:35;;;;;;;25.42;17.42;;;8.20;99.90;;;;;;5052156;28;20116;-68
2022/04/16 00:35:02;;;;;;;29.60;18.02;;;8.20;99.90;;;;;;5052193;28;20076;-68
2022/04/16 00:37:28;;;;;;;25.15;16.48;;;8.20;99.90;;;;;;5050708;28;20087;-68
2022/04/16 00:39:53;;;;;;;28.65;17.25;;;8.20;99.90;;;;;;5052044;28;20445;-68
2022/04/16 00:42:19;;;;;;;25.10;17.90;;;8.20;99.90;;;;;;5051847;28;20146;-68
2022/04/16 00:44:44;;;;;;;28.00;19.10;;;8.10;99.90;;;;;;5050634;28;20049;-68
2022/04/16 00:47:12;;;;;;;24.67;17.65;;;8.10;99.90;;;;;;5051989;28;20455;-68
2022/04/16 00:49:37;;;;;;;29.10;18.02;;;8.10;99.90;;;;;;5051903;28;20048;-68
2022/04/16 00:52:04;;;;;;;24.35;17.98;;;8.10;99.90;;;;;;5051589;28;20044;-68
2022/04/16 00:54:30;;;;;;;29.42;18.08;;;8.20;99.90;;;;;;5051975;28;20037;-68
2022/04/16 00:56:56;;;;;;;24.83;16.60;;;8.20;99.90;;;;;;5051740;28;20163;-68
2022/04/16 00:59:22;;;;;;;31.63;19.50;;;8.20;99.90;;;;;;5051745;28;20479;-68
2022/04/16 01:01:47;;;;;;;32.10;19.88;;;8.10;99.90;;;;;;5051533;28;20178;-68
2022/04/16 01:04:13;;;;;;;24.23;17.75;;;8.10;99.90;;;;;;5051645;28;20068;-68
2022/04/16 01:06:40;;;;;;;28.90;18.95;;;8.10;99.90;;;;;;5051640;28;20048;-68
2022/04/16 01:09:06;;;;;;;31.15;19.92;;;8.10;99.90;;;;;;5050580;28;20045;-68
2022/04/16 01:11:32;;;;;;;31.75;20.23;;;8.10;99.90;;;;;;5051482;28;20047;-68
2022/04/16 01:14:02;;;;;;;31.15;19.80;;;8.10;99.90;;;;;;5051372;28;20115;-68
2022/04/16 01:16:31;;;;;;;30.33;19.88;;;8.10;99.90;;;;;;5050300;28;20037;-69
2022/04/16 01:18:57;;;;;;;28.05;19.77;;;8.10;99.90;;;;;;5051505;28;20029;-68
2022/04/16 01:21:23;;;;;;;30.17;21.55;;;8.10;99.90;;;;;;5049893;28;20553;-68
2022/04/16 01:23:49;;;;;;;29.75;21.30;;;8.10;99.90;;;;;;5051649;28;20120;-68
2022/04/16 01:26:15;;;;;;;34.75;20.80;;;8.10;99.90;;;;;;5051626;28;20036;-68
2022/04/16 01:28:40;;;;;;;31.58;20.63;;;8.10;99.90;;;;;;5051668;28;20090;-68
2022/04/16 01:31:07;;;;;;;30.23;21.23;;;8.10;99.90;;;;;;5051351;28;20037;-68
2022/04/16 01:33:32;;;;;;;36.40;22.83;;;8.10;99.90;;;;;;5054274;28;20040;-68
2022/04/16 01:35:58;;;;;;;32.42;21.30;;;8.10;99.90;;;;;;5055654;28;20113;-68
2022/04/16 01:38:27;;;;;;;31.45;21.02;;;8.10;99.90;;;;;;5055757;28;20044;-68
2022/04/16 01:40:56;;;;;;;33.40;21.83;;;8.10;99.90;;;;;;5055420;28;20116;-68
2022/04/16 01:43:22;;;;;;;38.30;23.08;;;8.00;99.90;;;;;;5054526;28;20368;-68
2022/04/16 01:45:49;;;;;;;34.35;21.95;;;8.00;99.90;;;;;;5055399;28;20041;-68
2022/04/16 01:48:16;;;;;;;38.28;22.38;;;8.00;99.90;;;;;;5055220;28;20114;-68
2022/04/16 01:50:41;;;;;;;39.70;23.90;;;8.00;99.90;;;;;;5054730;28;20033;-68
2022/04/16 01:53:07;;;;;;;39.17;24.20;;;8.00;99.90;;;;;;5053783;28;20172;-68
2022/04/16 01:55:32;;;;;;;37.60;23.98;;;7.90;99.90;;;;;;5055324;28;20494;-68
2022/04/16 01:57:58;;;;;;;36.33;23.08;;;7.90;99.90;;;;;;5055290;28;20624;-68
2022/04/16 02:00:24;;;;;;;35.38;22.67;;;7.90;99.90;;;;;;5054822;28;20036;-68
2022/04/16 02:02:50;;;;;;;39.67;24.23;;;7.90;99.90;;;;;;5053562;28;20506;-68
2022/04/16 02:05:16;;;;;;;37.83;23.83;;;7.90;99.90;;;;;;5053723;28;20041;-68
2022/04/16 02:07:42;;;;;;;37.53;22.52;;;7.90;99.90;;;;;;5055067;28;20502;-68
2022/04/16 02:10:09;;;;;;;35.10;23.17;;;7.80;99.90;;;;;;5054575;28;20075;-68
2022/04/16 02:12:38;;;;;;;33.85;23.63;;;7.90;99.90;;;;;;5053410;28;20044;-68
2022/04/16 02:15:05;;;;;;;34.80;22.23;;;7.90;99.90;;;;;;5054870;28;20393;-68
2022/04/16 02:17:32;;;;;;;36.00;22.70;;;7.90;99.90;;;;;;5053626;28;20049;-68
2022/04/16 02:19:58;;;;;;;33.80;22.20;;;8.00;99.90;;;;;;5054647;28;20041;-68
2022/04/16 02:22:24;;;;;;;32.67;23.05;;;8.00;99.90;;;;;;5054522;28;20119;-68
2022/04/16 02:24:49;;;;;;;33.53;22.08;;;8.00;99.90;;;;;;5054635;28;20049;-68
2022/04/16 02:27:15;;;;;;;34.97;23.33;;;8.00;99.90;;;;;;5053412;28;20067;-68
2022/04/16 02:29:41;;;;;;;36.28;22.35;;;8.10;99.90;;;;;;5053165;28;20071;-68
2022/04/16 02:32:07;;;;;;;32.40;22.02;;;8.00;99.90;;;;;;5054089;28;20040;-68
2022/04/16 02:34:33;;;;;;;32.38;21.83;;;8.10;99.90;;;;;;5054362;28;20119;-68
2022/04/16 02:36:58;;;;;;;31.00;21.50;;;8.10;99.90;;;;;;5054399;28;20040;-68
2022/04/16 02:39:25;;;;;;;32.33;21.95;;;8.20;99.90;;;;;;5053043;28;20037;-68
2022/04/16 02:41:51;;;;;;;30.77;21.30;;;8.20;99.90;;;;;;5054119;28;20209;-68
2022/04/16 02:47:08;;;;;;;36.53;22.70;;;8.30;99.90;;;;;;5054566;28;20041;-68
2022/04/16 02:49:36;;;;;;;33.67;22.50;;;8.30;99.90;;;;;;5054340;28;20056;-68
2022/04/16 02:52:02;;;;;;;33.45;23.05;;;8.40;99.90;;;;;;5053913;28;20044;-68
2022/04/16 02:54:27;;;;;;;34.70;23.55;;;8.40;99.90;;;;;;5053998;28;20040;-68
2022/04/16 02:56:54;;;;;;;33.67;23.40;;;8.40;99.90;;;;;;5053952;28;20514;-68
2022/04/16 02:59:20;;;;;;;42.20;26.83;;;8.50;99.90;;;;;;5053819;28;20048;-68
2022/04/16 03:01:46;;;;;;;40.03;27.00;;;8.50;99.90;;;;;;5053811;28;20032;-68
2022/04/16 03:04:11;;;;;;;37.95;25.52;;;8.50;99.90;;;;;;5052763;28;20414;-68
2022/04/16 03:06:37;;;;;;;35.35;25.50;;;8.50;99.90;;;;;;5053909;28;20437;-68
2022/04/16 03:09:03;;;;;;;37.30;26.10;;;8.50;99.90;;;;;;5053805;28;20409;-68
2022/04/16 03:11:28;;;;;;;38.25;25.92;;;8.50;99.90;;;;;;5053310;28;20495;-68
2022/04/16 03:13:54;;;;;;;38.30;26.25;;;8.50;99.90;;;;;;5053392;28;20068;-69
2022/04/16 03:19:04;;;;;;;44.15;27.02;;;8.50;99.90;;;;;;5053743;28;20080;-68
2022/04/16 03:21:29;;;;;;;40.70;26.55;;;8.50;99.90;;;;;;5053210;28;20041;-69
2022/04/16 03:23:55;;;;;;;43.65;26.30;;;8.50;99.90;;;;;;5052072;28;20041;-68
2022/04/16 03:26:20;;;;;;;42.33;28.83;;;8.50;99.90;;;;;;5052362;28;20053;-68
2022/04/16 03:28:46;;;;;;;47.15;29.33;;;8.50;99.90;;;;;;5052144;28;20045;-68
2022/04/16 03:31:11;;;;;;;44.42;29.33;;;8.50;99.90;;;;;;5053044;28;20040;-68
2022/04/16 03:33:38;;;;;;;44.13;30.83;;;8.40;99.90;;;;;;5051995;28;20605;-68
2022/04/16 03:36:04;;;;;;;46.92;29.98;;;8.50;99.90;;;;;;5053244;28;20052;-68
2022/04/16 03:38:29;;;;;;;50.80;30.10;;;8.40;99.90;;;;;;5053217;28;20033;-68
2022/04/16 03:40:55;;;;;;;48.30;30.90;;;8.40;99.90;;;;;;5052842;28;20487;-68
2022/04/16 03:43:21;;;;;;;48.28;31.85;;;8.40;99.90;;;;;;5051799;28;20045;-68
2022/04/16 03:45:47;;;;;;;45.42;30.25;;;8.30;99.90;;;;;;5053298;28;20068;-68
2022/04/16 03:48:13;;;;;;;51.85;31.48;;;8.30;99.90;;;;;;5053068;28;20076;-68
2022/04/16 03:50:40;;;;;;;45.45;30.30;;;8.30;99.90;;;;;;5051339;28;20049;-68
2022/04/16 03:53:06;;;;;;;49.83;32.83;;;8.30;99.90;;;;;;5051791;28;20433;-68
2022/04/16 04:01:04;;;;;;;50.05;32.35;;;8.30;99.90;;;;;;5051254;28;20154;-68
2022/04/16 04:03:30;;;;;;;45.85;31.35;;;8.30;99.90;;;;;;5052623;28;20414;-68
2022/04/16 04:05:58;;;;;;;50.70;32.15;;;8.20;99.90;;;;;;5052503;28;20029;-68
2022/04/16 04:08:25;;;;;;;47.33;31.80;;;8.30;99.90;;;;;;5052832;28;20045;-68
2022/04/16 04:10:51;;;;;;;49.35;30.83;;;8.30;99.90;;;;;;5052138;28;20520;-68
2022/04/16 04:13:17;;;;;;;49.55;31.00;;;8.20;99.90;;;;;;5051127;28;20040;-69
2022/04/16 04:15:43;;;;;;;50.42;31.63;;;8.20;99.90;;;;;;5051229;28;20121;-69
2022/04/16 04:18:09;;;;;;;48.80;31.15;;;8.20;99.90;;;;;;5052434;28;20120;-69
2022/04/16 04:20:35;;;;;;;48.88;30.42;;;8.20;99.90;;;;;;5051903;28;20060;-69
2022/04/16 04:23:01;;;;;;;44.53;30.48;;;8.20;99.90;;;;;;5052445;28;20044;-69
2022/04/16 04:25:27;;;;;;;48.53;31.52;;;8.20;99.90;;;;;;5052425;28;20124;-69
2022/04/16 04:27:53;;;;;;;45.28;30.73;;;8.20;99.90;;;;;;5052330;28;20466;-69
2022/04/16 04:30:18;;;;;;;49.10;31.20;;;8.20;99.90;;;;;;5051906;28;20388;-69
2022/04/16 04:32:44;;;;;;;48.17;31.02;;;8.10;99.90;;;;;;5052129;28;20082;-68
2022/04/16 04:35:10;;;;;;;51.38;31.50;;;8.10;99.90;;;;;;5050724;28;20048;-69
2022/04/16 04:37:36;;;;;;;49.10;31.25;;;8.10;99.90;;;;;;5050810;28;20033;-69
2022/04/16 04:40:01;;;;;;;44.95;29.20;;;8.10;99.90;;;;;;5051937;28;20051;-69
2022/04/16 04:42:29;;;;;;;45.03;28.73;;;8.10;99.90;;;;;;5050992;28;20071;-69
2022/04/16 04:44:55;;;;;;;42.83;28.02;;;8.10;99.90;;;;;;5051936;28;20049;-69
2022/04/16 04:47:20;;;;;;;44.35;27.63;;;8.10;99.90;;;;;;5050724;28;20422;-69
2022/04/16 04:49:46;;;;;;;39.13;26.35;;;8.10;99.90;;;;;;5050458;28;20051;-69
2022/04/16 04:52:21;;;;;;;38.10;26.17;;;8.10;99.90;;;;;;5051800;28;20033;-69
2022/04/16 04:54:47;;;;;;;39.28;27.40;;;8.20;99.90;;;;;;5051916;28;20055;-69
2022/04/16 04:57:13;;;;;;;38.67;24.52;;;8.20;99.90;;;;;;5051839;28;20037;-68
2022/04/16 04:59:38;;;;;;;39.55;25.10;;;8.20;99.90;;;;;;5050467;28;20518;-68
2022/04/16 05:02:05;;;;;;;35.92;25.40;;;8.20;99.90;;;;;;5050182;28;20414;-69
2022/04/16 05:04:31;;;;;;;35.00;23.08;;;8.20;99.90;;;;;;5051535;28;20048;-68
2022/04/16 05:06:57;;;;;;;34.38;22.45;;;8.20;99.90;;;;;;5050148;28;20051;-68
2022/04/16 05:09:23;;;;;;;35.10;23.10;;;8.20;99.90;;;;;;5051722;28;20037;-69
2022/04/16 05:11:48;;;;;;;30.23;20.90;;;8.20;99.90;;;;;;5051463;28;20033;-69
2022/04/16 05:14:15;;;;;;;32.47;21.77;;;8.20;99.90;;;;;;5051436;28;20033;-69
2022/04/16 05:16:41;;;;;;;32.13;21.13;;;8.20;99.90;;;;;;5051517;28;20465;-68
2022/04/16 05:19:07;;;;;;;37.70;23.80;;;8.20;99.90;;;;;;5051769;28;20034;-69
2022/04/16 05:21:32;;;;;;;37.92;23.55;;;8.30;99.90;;;;;;5051401;28;20399;-69
2022/04/16 05:23:58;;;;;;;32.10;20.95;;;8.20;99.90;;;;;;5051425;28;20163;-68
2022/04/16 05:26:23;;;;;;;32.90;21.85;;;8.30;99.90;;;;;;5051593;28;20033;-69
2022/04/16 05:28:49;;;;;;;32.08;21.35;;;8.30;99.90;;;;;;5051540;28;20094;-69
2022/04/16 05:31:15;;;;;;;31.40;21.70;;;8.30;99.90;;;;;;5051026;28;20045;-69
2022/04/16 05:36:24;;;;;;;30.00;21.05;;;8.30;99.90;;;;;;5050161;28;20134;-69
2022/04/16 05:38:50;;;;;;;32.50;20.92;;;8.30;99.90;;;;;;5051514;28;20072;-69
2022/04/16 05:41:15;;;;;;;33.63;21.58;;;8.30;99.90;;;;;;5049804;28;20072;-69
2022/04/16 05:43:41;;;;;;;32.97;20.52;;;8.40;99.90;;;;;;5051195;28;20112;-69
2022/04/16 05:46:07;;;;;;;32.72;21.67;;;8.40;99.90;;;;;;5051474;28;20510;-69
2022/04/16 05:48:32;;;;;;;29.10;19.10;;;8.40;99.90;;;;;;5051225;28;20037;-68
2022/04/16 05:50:58;;;;;;;34.05;20.35;;;8.40;99.90;;;;;;5050998;28;20037;-68
2022/04/16 05:53:24;;;;;;;27.15;18.48;;;8.40;99.90;;;;;;5051293;28;20033;-69
2022/04/16 05:55:50;;;;;;;33.15;20.75;;;8.30;99.90;;;;;;5051290;28;20033;-69
2022/04/16 05:58:17;;;;;;;29.35;19.88;;;8.40;99.90;;;;;;5049977;28;20056;-69
2022/04/16 06:00:43;;;;;;;29.50;18.90;;;8.40;99.90;;;;;;5051341;28;20117;-69
2022/04/16 06:03:08;;;;;;;27.70;18.23;;;8.50;99.90;;;;;;5051076;28;20502;-69
2022/04/16 06:05:35;;;;;;;26.30;17.63;;;8.60;99.90;;;;;;5049983;28;20047;-69
2022/04/16 06:08:01;;;;;;;26.15;18.02;;;8.80;99.90;;;;;;5050126;28;20395;-69
2022/04/16 06:10:27;;;;;;;23.63;16.13;;;9.10;99.90;;;;;;5049597;28;20086;-69
2022/04/16 06:12:53;;;;;;;26.35;17.58;;;9.20;99.90;;;;;;5050929;28;20033;-69
2022/04/16 06:15:19;;;;;;;27.35;17.20;;;9.40;99.90;;;;;;5051407;28;20041;-69
2022/04/16 06:17:44;;;;;;;23.42;15.05;;;9.70;99.90;;;;;;5051385;28;20095;-69
2022/04/16 06:20:11;;;;;;;24.08;15.48;;;9.90;99.90;;;;;;5052826;28;20499;-69
2022/04/16 06:22:37;;;;;;;21.30;14.68;;;10.00;99.90;;;;;;5053713;28;20040;-69
2022/04/16 06:25:03;;;;;;;22.38;14.70;;;10.10;99.90;;;;;;5053421;28;20094;-68
2022/04/16 06:27:29;;;;;;;21.65;14.13;;;10.30;99.90;;;;;;5053227;28;20460;-69
2022/04/16 06:29:55;;;;;;;18.40;11.43;;;10.30;99.90;;;;;;5053148;28;20059;-69
2022/04/16 06:32:20;;;;;;;20.30;12.30;;;10.40;99.90;;;;;;5053127;28;20037;-69
2022/04/16 06:34:46;;;;;;;23.05;12.73;;;10.40;99.90;;;;;;5053382;28;20082;-69
2022/04/16 06:37:11;;;;;;;18.92;12.27;;;10.60;99.90;;;;;;5054501;28;20038;-69
2022/04/16 06:39:37;;;;;;;16.58;12.25;;;10.70;99.90;;;;;;5054371;28;20048;-69
2022/04/16 06:42:04;;;;;;;19.55;11.80;;;10.70;99.90;;;;;;5053997;28;20532;-69
2022/04/16 06:44:31;;;;;;;18.48;11.20;;;10.80;99.90;;;;;;5054430;28;20037;-69
2022/04/16 06:46:57;;;;;;;16.65;10.48;;;10.90;99.90;;;;;;5054149;28;20547;-69
2022/04/16 06:49:25;;;;;;;15.32;10.73;;;10.90;99.90;;;;;;5052855;28;20483;-67
2022/04/16 06:51:51;;;;;;;17.70;12.13;;;11.00;98.40;;;;;;5054062;28;20045;-68
2022/04/16 06:54:17;;;;;;;16.90;11.10;;;10.90;99.10;;;;;;5054057;28;20083;-68
2022/04/16 06:56:42;;;;;;;16.52;10.38;;;10.90;98.20;;;;;;5052831;28;20445;-68
2022/04/16 06:59:08;;;;;;;16.85;10.82;;;11.10;97.50;;;;;;5054200;28;20509;-67
2022/04/16 07:01:33;;;;;;;14.20;9.15;;;11.10;97.90;;;;;;5053724;28;20426;-68
2022/04/16 07:03:59;;;;;;;16.10;9.93;;;11.30;95.00;;;;;;5049126;28;20479;-68
2022/04/16 07:06:25;;;;;;;16.58;10.07;;;11.30;94.10;;;;;;5053791;28;20045;-67
2022/04/16 07:08:50;;;;;;;15.20;8.93;;;11.30;93.40;;;;;;5053769;28;20037;-67
2022/04/16 07:11:16;;;;;;;14.35;9.48;;;11.10;94.30;;;;;;5053178;28;20479;-67
2022/04/16 07:13:41;;;;;;;19.33;9.93;;;11.20;94.20;;;;;;5053639;28;20049;-67
2022/04/16 07:16:07;;;;;;;14.45;8.25;;;11.40;92.40;;;;;;5053670;28;20041;-67
2022/04/16 07:18:33;;;;;;;14.43;7.88;;;11.30;91.10;;;;;;5053658;28;20115;-68
2022/04/16 07:20:59;;;;;;;12.60;7.60;;;11.40;90.20;;;;;;5053369;28;20041;-68
2022/04/16 07:23:24;;;;;;;13.90;8.43;;;11.50;88.20;;;;;;5053402;28;20041;-68
2022/04/16 07:25:50;;;;;;;14.73;9.77;;;11.60;86.60;;;;;;5053306;28;20629;-68
2022/04/16 07:28:21;;;;;;;19.10;10.80;;;11.70;87.10;;;;;;5053357;28;20041;-68
2022/04/16 07:30:51;;;;;;;15.82;9.50;;;11.70;90.10;;;;;;5052470;28;20057;-68
2022/04/16 07:33:17;;;;;;;15.13;10.73;;;11.70;89.50;;;;;;5053267;28;20032;-68
2022/04/16 07:35:43;;;;;;;13.85;8.68;;;11.70;88.50;;;;;;5053295;28;20044;-68
2022/04/16 07:38:09;;;;;;;15.25;9.90;;;11.70;88.30;;;;;;5053190;28;20037;-68
2022/04/16 07:40:34;;;;;;;12.82;7.80;;;11.80;84.60;;;;;;5052763;28;20041;-68
2022/04/16 07:43:01;;;;;;;13.07;8.18;;;11.80;83.70;;;;;;5052323;28;20075;-68
2022/04/16 07:45:28;;;;;;;11.10;7.43;;;12.00;81.50;;;;;;5036589;28;20044;-69
2022/04/16 07:47:53;;;;;;;11.30;6.68;;;12.00;80.20;;;;;;5033153;28;20056;-69
2022/04/16 07:50:19;;;;;;;7.60;5.40;;;12.30;79.10;;;;;;5031455;28;20041;-68
2022/04/16 07:52:46;;;;;;;8.25;4.93;;;12.20;74.40;;;;;;5032882;28;20045;-68
2022/04/16 07:55:12;;;;;;;7.07;4.32;;;12.40;71.30;;;;;;5032910;28;20486;-69
2022/04/16 07:57:38;;;;;;;7.75;4.45;;;12.50;70.60;;;;;;5033122;28;20072;-69
2022/04/16 08:00:06;;;;;;;5.78;4.35;;;12.50;67.70;;;;;;5032639;28;20044;-68
2022/04/16 08:02:31;;;;;;;8.70;4.70;;;12.60;67.80;;;;;;5032968;28;20049;-69
2022/04/16 08:04:58;;;;;;;7.78;4.80;;;12.50;67.00;;;;;;5032859;28;20419;-69
2022/04/16 08:07:24;;;;;;;7.25;4.40;;;12.40;67.40;;;;;;5031423;28;20077;-69
2022/04/16 08:09:50;;;;;;;7.18;4.53;;;12.60;67.70;;;;;;5032782;28;20033;-69
2022/04/16 08:12:16;;;;;;;6.47;4.13;;;12.60;66.60;;;;;;5032570;28;20494;-69
2022/04/16 08:14:42;;;;;;;8.48;4.13;;;12.60;64.10;;;;;;5031271;28;20045;-68
2022/04/16 08:17:07;;;;;;;6.95;4.53;;;12.60;64.30;;;;;;5031199;28;20042;-69
2022/04/16 08:19:33;;;;;;;7.95;3.95;;;12.60;63.80;;;;;;5032437;28;20064;-69
2022/04/16 08:21:58;;;;;;;8.68;3.97;;;12.40;62.50;;;;;;5014398;28;20073;-69
2022/04/16 08:26:52;;;;;;;6.53;4.45;;;12.50;62.40;;;;;;5031281;28;20042;-69
2022/04/16 08:29:18;;;;;;;7.47;3.63;;;12.40;61.90;;;;;;5014630;28;20053;-69
2022/04/16 08:31:43;;;;;;;5.32;2.97;;;12.70;60.50;;;;;;5030718;28;20130;-69
2022/04/16 08:34:09;;;;;;;3.53;2.33;;;12.90;59.80;;;;;;5034534;28;20049;-69
2022/04/16 08:36:36;;;;;;;4.35;2.10;;;13.00;57.90;;;;;;5052301;28;20044;-69
2022/04/16 08:39:06;;;;;;;4.10;1.77;;;13.10;55.60;;;;;;5051996;28;20037;-69
2022/04/16 08:41:32;;;;;;;3.50;2.00;;;12.90;53.60;;;;;;5050415;28;20208;-69
2022/04/16 08:43:58;;;;;;;2.55;1.73;;;13.10;53.10;;;;;;5051670;28;20048;-70
2022/04/16 08:46:27;;;;;;;3.22;1.55;;;12.90;52.30;;;;;;5051862;28;20033;-70
2022/04/16 08:48:53;;;;;;;4.15;1.75;;;13.10;52.50;;;;;;5051924;28;20033;-69
2022/04/16 08:51:20;;;;;;;4.50;1.35;;;13.00;50.00;;;;;;5050460;28;20502;-69
2022/04/16 08:53:45;;;;;;;4.35;1.67;;;13.10;48.40;;;;;;5050787;28;20055;-69
2022/04/16 08:56:11;;;;;;;2.97;1.40;;;13.30;50.20;;;;;;5051879;28;20037;-68
2022/04/16 08:58:38;;;;;;;4.03;1.70;;;13.10;46.80;;;;;;5050527;28;20043;-68
2022/04/16 09:01:04;;;;;;;1.83;0.88;;;13.30;47.80;;;;;;5051753;28;20391;-68
2022/04/16 09:03:37;;;;;;;2.70;1.10;;;13.30;46.70;;;;;;5051930;28;20043;-68
2022/04/16 09:06:04;;;;;;;;;;;13.00;44.50;;;;;;5050841;28;20103;-68
2022/04/16 09:08:30;;;;;;;2.53;1.20;;;13.00;46.00;;;;;;5051858;28;20012;-68
2022/04/16 09:11:11;;;;;;;4.75;1.60;;;13.10;47.70;;;;;;5051481;28;20069;-68
2022/04/16 09:13:49;;;;;;;2.45;1.70;;;13.10;46.90;;;;;;5051715;28;20041;-68
2022/04/16 09:16:14;;;;;;;3.10;1.40;;;13.30;46.90;;;;;;5051664;28;20043;-68
2022/04/16 09:18:46;;;;;;;2.33;1.20;;;13.20;46.50;;;;;;5050704;28;20124;-68
2022/04/16 09:21:16;;;;;;;2.97;1.10;;;12.90;45.10;;;;;;5050152;28;20103;-68
2022/04/16 09:23:52;;;;;;;2.40;0.90;;;12.80;46.40;;;;;;5051685;28;20095;-68
2022/04/16 09:26:30;;;;;;;2.97;1.30;;;12.90;47.10;;;;;;5051735;28;20045;-68
2022/04/16 09:28:56;;;;;;;3.20;1.50;;;13.00;47.90;;;;;;5042079;28;20398;-68
2022/04/16 09:31:28;;;;;;;3.72;1.23;;;13.00;47.20;;;;;;5037794;28;20042;-68
2022/04/16 09:33:55;;;;;;;4.75;1.48;;;12.80;46.80;;;;;;5034049;28;20035;-68
2022/04/16 09:36:25;;;;;;;1.88;1.13;;;12.60;47.40;;;;;;5035796;28;20037;-68
2022/04/16 09:39:00;;;;;;;2.40;1.17;;;12.50;47.50;;;;;;5044219;28;20041;-68
2022/04/16 09:41:30;;;;;;;1.83;1.10;;;12.50;48.10;;;;;;5049820;28;20044;-68
2022/04/16 09:43:56;;;;;;;2.08;1.10;;;12.70;48.60;;;;;;5050005;28;20041;-68
2022/04/16 09:46:25;;;;;;;2.10;1.38;;;12.70;47.90;;;;;;5050072;28;20387;-68
2022/04/16 09:48:54;;;;;;;1.98;1.15;;;12.80;47.60;;;;;;5033771;28;20425;-68
2022/04/16 09:51:24;;;;;;;4.85;2.10;;;12.80;47.30;;;;;;5050948;28;20041;-68
2022/04/16 09:53:52;;;;;;;1.92;1.13;;;12.70;47.50;;;;;;5049886;28;20041;-68
2022/04/16 09:56:19;;;;;;;2.92;1.20;;;12.50;46.30;;;;;;5055157;28;20052;-69
2022/04/16 09:58:52;;;;;;;2.05;1.25;;;12.40;46.70;;;;;;5055109;28;20044;-69
2022/04/16 10:01:19;;;;;;;3.97;1.30;;;12.60;47.50;;;;;;5053509;28;20049;-69
2022/04/16 10:03:46;;;;;;;3.28;1.10;;;12.60;47.60;;;;;;5054980;28;20151;-68
2022/04/16 10:06:12;;;;;;;4.22;1.05;;;12.60;47.20;;;;;;5054832;28;20067;-68
2022/04/16 10:08:39;;;;;;;4.18;1.15;;;12.50;47.00;;;;;;5055186;28;20546;-68
2022/04/16 10:11:05;;;;;;;2.63;1.52;;;12.50;46.40;;;;;;5054721;28;20037;-68
2022/04/16 10:13:38;;;;;;;1.95;1.10;;;12.40;46.50;;;;;;5053668;28;20099;-68
2022/04/16 10:16:12;;;;;;;2.75;1.30;;;12.60;47.80;;;;;;5055205;28;20041;-69
2022/04/16 10:18:38;;;;;;;2.25;0.82;;;12.60;46.90;;;;;;5054773;28;20068;-69
2022/04/16 10:21:04;;;;;;;1.42;0.98;;;12.60;45.20;;;;;;5054363;28;20525;-68
2022/04/16 10:23:39;;;;;;;2.08;0.90;;;12.70;45.30;;;;;;5053323;28;20044;-68
2022/04/16 10:26:17;;;;;;;2.30;1.17;;;12.60;43.40;;;;;;5054734;28;20037;-68
2022/04/16 10:28:53;;;;;;;1.48;0.90;;;12.60;44.00;;;;;;5053433;28;20402;-68
2022/04/16 10:31:23;;;;;;;1.52;0.77;;;12.70;43.40;;;;;;5053873;28;20041;-67
2022/04/16 10:34:04;;;;;;;0.75;0.65;;;12.60;42.50;;;;;;5062901;28;20094;-69
2022/04/16 10:36:33;;;;;;;1.42;0.68;;;12.80;43.10;;;;;;5070455;28;20043;-68
2022/04/16 10:39:18;;;;;;;1.27;0.90;;;12.70;42.00;;;;;;5057043;28;20032;-69
2022/04/16 10:42:01;;;;;;;4.70;1.13;;;12.70;41.60;;;;;;5042700;28;20091;-69
2022/04/16 10:44:29;;;;;;;3.65;1.02;;;12.80;42.30;;;;;;5041783;28;20052;-69
2022/04/16 10:46:55;;;;;;;1.90;1.00;;;12.80;42.60;;;;;;5043234;28;20507;-69
2022/04/16 10:49:25;;;;;;;3.15;1.20;;;12.80;42.80;;;;;;5043596;28;20051;-69
2022/04/16 10:51:52;;;;;;;3.28;0.95;;;12.70;42.40;;;;;;5044367;28;20119;-69
2022/04/16 10:54:32;;;;;;;1.70;0.82;;;12.70;43.10;;;;;;5042173;28;20045;-69
2022/04/16 10:56:59;;;;;;;2.10;1.08;;;12.80;43.20;;;;;;5043680;28;20034;-69
2022/04/16 10:59:42;;;;;;;3.42;1.05;;;12.80;43.30;;;;;;5041564;28;20045;-69
2022/04/16 11:02:34;;;;;;;1.08;0.93;;;12.90;42.20;;;;;;5052940;28;20083;-68
2022/04/16 11:05:08;;;;;;;2.33;0.73;;;12.80;40.20;;;;;;5053778;28;20037;-68
2022/04/16 11:07:35;;;;;;;2.60;1.00;;;12.80;39.30;;;;;;5070427;28;20045;-68
2022/04/16 11:10:06;;;;;;;2.35;1.00;;;12.90;41.30;;;;;;5071955;28;20147;-69
2022/04/16 11:12:32;;;;;;;1.58;0.90;;;13.00;42.50;;;;;;5073519;28;20045;-68
2022/04/16 11:14:57;;;;;;;2.35;0.82;;;13.00;39.50;;;;;;5073498;28;20029;-68
2022/04/16 11:17:24;;;;;;;2.95;1.17;;;13.00;40.40;;;;;;5073482;28;20041;-68
2022/04/16 11:20:05;;;;;;;2.40;0.80;;;13.00;40.20;;;;;;5072272;28;20097;-68
2022/04/16 11:22:30;;;;;;;1.23;0.88;;;12.90;38.40;;;;;;5073588;28;20059;-68
2022/04/16 11:25:00;;;;;;;1.35;1.05;;;12.80;39.20;;;;;;5072505;28;20037;-69
2022/04/16 11:36:01;;;;;;;2.70;0.73;;;13.10;40.30;;;;;;5033291;28;20142;-68
2022/04/16 11:38:35;;;;;;;2.75;1.02;;;13.20;41.10;;;;;;5033569;28;20080;-69
2022/04/16 11:41:11;;;;;;;1.05;0.80;;;13.30;39.80;;;;;;5033052;28;20038;-68
2022/04/16 11:43:45;;;;;;;1.35;0.93;;;13.20;38.80;;;;;;5033084;28;20440;-68
2022/04/16 11:46:12;;;;;;;2.30;1.10;;;13.10;37.70;;;;;;5033129;28;20176;-69
2022/04/16 11:48:44;;;;;;;2.22;1.08;;;13.10;38.30;;;;;;5033045;28;20537;-69
2022/04/16 11:51:12;;;;;;;1.40;1.02;;;13.10;37.70;;;;;;5031520;28;20049;-68
2022/04/16 11:53:51;;;;;;;2.47;1.00;;;13.00;38.10;;;;;;5032964;28;20042;-69
2022/04/16 11:56:23;;;;;;;2.17;1.00;;;13.00;38.30;;;;;;5038173;28;20487;-69
2022/04/16 11:58:50;;;;;;;1.65;0.90;;;13.10;38.80;;;;;;5042519;28;20036;-68
2022/04/16 12:01:22;;;;;;;2.17;1.05;;;13.10;39.20;;;;;;5039994;28;20553;-69
2022/04/16 12:03:48;;;;;;;2.42;0.80;;;13.20;40.10;;;;;;5044283;28;20064;-68
2022/04/16 12:06:15;;;;;;;1.58;0.90;;;13.30;39.30;;;;;;5052873;28;20051;-69
2022/04/16 12:08:41;;;;;;;2.90;1.25;;;13.30;38.00;;;;;;5052547;28;20103;-69
2022/04/16 12:11:08;;;;;;;1.30;0.75;;;13.40;37.80;;;;;;5051108;28;20037;-69
2022/04/16 12:13:40;;;;;;;2.15;1.40;;;13.40;38.50;;;;;;5052297;28;20059;-69
2022/04/16 12:16:08;;;;;;;4.03;1.20;;;13.40;39.10;;;;;;5052646;28;20033;-69
2022/04/16 12:18:38;;;;;;;5.18;1.17;;;13.40;39.30;;;;;;5051740;28;20032;-69
2022/04/16 12:21:12;;;;;;;1.70;1.00;;;13.40;38.90;;;;;;5052155;28;20056;-69
2022/04/16 12:23:38;;;;;;;3.63;1.17;;;13.40;38.00;;;;;;5052189;28;20072;-68
2022/04/16 12:26:16;;;;;;;3.15;1.33;;;13.50;39.00;;;;;;5052543;28;20048;-68
2022/04/16 12:28:47;;;;;;;1.35;0.80;;;13.60;38.70;;;;;;5052523;28;20080;-68
2022/04/16 12:31:23;;;;;;;3.45;1.17;;;13.60;37.70;;;;;;5052025;28;20037;-68
2022/04/16 12:33:49;;;;;;;4.38;1.00;;;13.60;36.70;;;;;;5052307;28;20040;-69
2022/04/16 12:36:14;;;;;;;3.15;0.80;;;13.70;37.20;;;;;;5052390;28;20047;-68
2022/04/16 12:38:40;;;;;;;3.83;0.98;;;13.70;37.10;;;;;;5050733;28;20036;-68
2022/04/16 12:41:08;;;;;;;2.15;1.10;;;13.70;36.80;;;;;;5050678;28;20045;-69
2022/04/16 12:43:34;;;;;;;2.10;0.90;;;13.70;36.50;;;;;;5050697;28;20044;-69
2022/04/16 12:45:59;;;;;;;2.55;0.95;;;13.80;37.30;;;;;;5052188;28;20108;-69
2022/04/16 12:48:25;;;;;;;2.38;0.80;;;13.70;37.50;;;;;;5050808;28;20095;-69
2022/04/16 12:50:51;;;;;;;1.42;1.13;;;13.90;37.20;;;;;;5051617;28;20041;-69
2022/04/16 12:53:17;;;;;;;5.10;1.02;;;13.90;37.70;;;;;;5050489;28;20040;-69
2022/04/16 12:55:42;;;;;;;2.97;1.00;;;13.90;38.10;;;;;;5050809;28;20106;-69
2022/04/16 12:58:08;;;;;;;2.55;0.90;;;14.00;38.80;;;;;;5050661;28;20124;-69
2022/04/16 13:00:34;;;;;;;2.08;0.77;;;14.10;37.80;;;;;;5051611;28;20186;-68
2022/04/16 13:03:00;;;;;;;2.05;0.70;;;14.10;36.10;;;;;;5051815;28;20049;-68
2022/04/16 13:05:26;;;;;;;1.25;0.80;;;14.10;35.30;;;;;;5051732;28;20037;-69